createdAt,value
2022-12-22T00:00:22.819Z,34.10
2022-12-22T00:03:08.385Z,34.00
2022-12-22T00:05:54.328Z,34.10
2022-12-22T00:08:39.863Z,34.10
2022-12-22T00:11:29.775Z,34.10
2022-12-22T00:14:15.717Z,34.10
2022-12-22T00:17:01.686Z,34.10
2022-12-22T00:19:48.669Z,34.10
2022-12-22T00:22:43.281Z,34.10
2022-12-22T00:25:35.929Z,34.10
2022-12-22T00:28:32.371Z,34.20
2022-12-22T00:31:18.449Z,34.20
2022-12-22T00:34:03.860Z,34.10
2022-12-22T00:36:50.074Z,34.20
2022-12-22T00:39:35.477Z,34.00
2022-12-22T00:42:21.098Z,34.00
2022-12-22T00:45:06.388Z,34.10
2022-12-22T00:47:52.197Z,34.10
2022-12-22T00:50:37.719Z,34.20
2022-12-22T00:53:23.963Z,34.10
2022-12-22T00:56:09.388Z,34.10
2022-12-22T00:58:55.318Z,34.10
2022-12-22T01:01:41.769Z,34.20
2022-12-22T01:04:30.184Z,34.10
2022-12-22T01:07:16.478Z,34.10
2022-12-22T01:10:09.393Z,34.10
2022-12-22T01:12:58.981Z,34.20
2022-12-22T01:15:46.273Z,33.90
2022-12-22T01:18:32.180Z,34.10
2022-12-22T01:21:17.700Z,34.20
2022-12-22T01:24:03.957Z,34.80
2022-12-22T01:26:49.592Z,34.20
2022-12-22T01:29:34.981Z,34.20
2022-12-22T01:32:20.560Z,34.10
2022-12-22T01:35:05.837Z,34.10
2022-12-22T01:37:51.836Z,34.20
2022-12-22T01:40:43.464Z,34.10
2022-12-22T01:43:45.756Z,34.20
2022-12-22T01:46:52.201Z,34.30
2022-12-22T01:49:44.484Z,34.30
2022-12-22T01:52:34.011Z,34.20
2022-12-22T01:55:26.074Z,34.80
2022-12-22T01:58:11.973Z,34.20
2022-12-22T02:00:59.163Z,34.20
2022-12-22T02:03:47.568Z,34.20
2022-12-22T02:06:59.773Z,34.20
2022-12-22T02:10:19.597Z,34.30
2022-12-22T02:13:26.608Z,34.30
2022-12-22T02:16:47.689Z,34.20
2022-12-22T02:19:57.187Z,34.30
2022-12-22T02:22:58.002Z,34.20
2022-12-22T02:25:57.979Z,34.10
2022-12-22T02:28:43.253Z,34.20
2022-12-22T02:31:29.206Z,34.20
2022-12-22T02:34:14.898Z,34.20
2022-12-22T02:37:26.955Z,34.20
2022-12-22T02:40:33.228Z,34.20
2022-12-22T02:43:52.216Z,34.20
2022-12-22T02:46:51.653Z,34.30
2022-12-22T02:50:48.321Z,34.20
2022-12-22T02:53:38.085Z,34.20
2022-12-22T02:56:27.710Z,34.10
2022-12-22T02:59:14.114Z,34.20
2022-12-22T03:02:03.903Z,34.10
2022-12-22T03:04:49.822Z,34.20
2022-12-22T03:07:35.824Z,34.20
2022-12-22T03:10:21.759Z,34.20
2022-12-22T03:13:07.376Z,34.20
2022-12-22T03:15:52.618Z,34.20
2022-12-22T03:18:38.109Z,34.20
2022-12-22T03:21:24.195Z,34.20
2022-12-22T03:24:09.771Z,34.20
2022-12-22T03:26:36.693Z,34.20
2022-12-22T03:29:03.664Z,34.20
2022-12-22T03:31:30.798Z,34.20
2022-12-22T03:33:57.767Z,34.20
2022-12-22T03:36:24.784Z,34.20
2022-12-22T03:38:51.658Z,34.20
2022-12-22T03:41:37.029Z,34.20
2022-12-22T03:44:22.827Z,34.30
2022-12-22T03:46:49.770Z,34.20
2022-12-22T03:49:16.908Z,34.20
2022-12-22T03:51:49.253Z,34.20
2022-12-22T03:54:23.129Z,34.30
2022-12-22T03:56:50.960Z,34.30
2022-12-22T03:59:19.426Z,34.20
2022-12-22T04:01:53.232Z,34.20
2022-12-22T04:04:23.781Z,34.30
2022-12-22T04:06:54.002Z,34.30
2022-12-22T04:09:22.490Z,34.30
2022-12-22T04:12:27.521Z,34.30
2022-12-22T04:14:54.411Z,34.30
2022-12-22T04:17:21.356Z,34.20
2022-12-22T04:19:48.214Z,34.20
2022-12-22T04:22:15.314Z,34.30
2022-12-22T04:24:42.299Z,34.30
2022-12-22T04:27:09.245Z,34.30
2022-12-22T04:29:36.214Z,34.20
2022-12-22T04:32:03.459Z,34.30
2022-12-22T04:34:30.372Z,34.20
2022-12-22T04:37:04.409Z,34.20
2022-12-22T04:39:36.900Z,34.20
2022-12-22T04:42:03.887Z,34.20
2022-12-22T04:44:30.904Z,34.20
2022-12-22T04:46:57.889Z,34.20
2022-12-22T04:49:24.771Z,34.20
2022-12-22T04:51:51.644Z,34.20
2022-12-22T04:54:18.560Z,34.20
2022-12-22T04:56:45.536Z,34.20
2022-12-22T04:59:12.481Z,34.20
2022-12-22T05:01:39.595Z,34.20
2022-12-22T05:04:06.579Z,34.20
2022-12-22T05:06:33.604Z,34.20
2022-12-22T05:09:00.476Z,34.30
2022-12-22T05:11:27.387Z,34.30
2022-12-22T05:13:54.319Z,34.30
2022-12-22T05:16:21.513Z,34.30
2022-12-22T05:18:48.633Z,34.00
2022-12-22T05:21:22.708Z,34.20
2022-12-22T05:23:50.938Z,34.30
2022-12-22T05:26:19.535Z,34.30
2022-12-22T05:28:48.076Z,34.30
2022-12-22T05:31:22.167Z,34.20
2022-12-22T05:33:49.553Z,34.20
2022-12-22T05:36:16.908Z,34.20
2022-12-22T05:38:46.741Z,34.20
2022-12-22T05:41:13.975Z,34.30
2022-12-22T05:43:40.990Z,34.20
2022-12-22T05:46:10.956Z,34.30
2022-12-22T05:48:39.897Z,34.30
2022-12-22T05:51:09.163Z,34.30
2022-12-22T05:53:38.033Z,34.30
2022-12-22T05:56:07.907Z,34.30
2022-12-22T05:58:38.469Z,34.30
2022-12-22T06:01:06.383Z,34.30
2022-12-22T06:03:33.367Z,34.30
2022-12-22T06:06:00.666Z,34.30
2022-12-22T06:08:27.888Z,34.30
2022-12-22T06:10:57.402Z,34.30
2022-12-22T06:13:26.081Z,34.30
2022-12-22T06:15:53.659Z,34.30
2022-12-22T06:18:20.675Z,34.30
2022-12-22T06:20:47.959Z,34.30
2022-12-22T06:23:14.888Z,34.30
2022-12-22T06:25:41.891Z,34.30
2022-12-22T06:28:08.870Z,34.30
2022-12-22T06:30:35.772Z,34.20
2022-12-22T06:33:03.685Z,34.30
2022-12-22T06:35:30.630Z,34.30
2022-12-22T06:37:57.544Z,34.40
2022-12-22T06:40:24.516Z,34.50
2022-12-22T06:43:10.012Z,34.60
2022-12-22T06:45:40.638Z,34.70
2022-12-22T06:48:12.405Z,35.00
2022-12-22T06:50:39.787Z,35.10
2022-12-22T06:53:08.398Z,35.20
2022-12-22T06:55:36.920Z,35.40
2022-12-22T06:58:05.152Z,35.60
2022-12-22T07:00:32.542Z,35.60
2022-12-22T07:02:59.844Z,35.60
2022-12-22T07:05:27.158Z,35.70
2022-12-22T07:07:54.212Z,35.80
2022-12-22T07:10:41.063Z,35.80
2022-12-22T07:13:19.293Z,35.80
2022-12-22T07:15:52.131Z,35.90
2022-12-22T07:18:24.532Z,36.00
2022-12-22T07:20:51.556Z,36.10
2022-12-22T07:23:18.515Z,36.10
2022-12-22T07:25:45.547Z,36.00
2022-12-22T07:28:18.376Z,35.90
2022-12-22T07:30:49.157Z,36.00
2022-12-22T07:33:16.286Z,36.00
2022-12-22T07:35:43.266Z,36.00
2022-12-22T07:38:10.679Z,36.00
2022-12-22T07:40:41.824Z,35.90
2022-12-22T07:43:09.606Z,36.00
2022-12-22T07:45:36.730Z,35.90
2022-12-22T07:48:27.085Z,35.90
2022-12-22T07:51:03.731Z,35.90
2022-12-22T07:53:30.914Z,35.90
2022-12-22T07:56:02.165Z,35.70
2022-12-22T07:58:29.125Z,35.70
2022-12-22T08:01:01.145Z,35.60
2022-12-22T08:03:28.425Z,35.40
2022-12-22T08:05:55.573Z,35.40
2022-12-22T08:08:22.557Z,35.40
2022-12-22T08:10:49.558Z,35.40
2022-12-22T08:13:16.564Z,35.40
2022-12-22T08:15:43.562Z,35.40
2022-12-22T08:18:10.546Z,35.40
2022-12-22T08:20:37.493Z,35.40
2022-12-22T08:23:04.442Z,35.30
2022-12-22T08:25:34.050Z,35.30
2022-12-22T08:28:02.099Z,35.30
2022-12-22T08:30:31.331Z,35.20
2022-12-22T08:32:58.281Z,35.10
2022-12-22T08:35:25.391Z,35.20
2022-12-22T08:37:53.534Z,35.10
2022-12-22T08:40:28.709Z,35.00
2022-12-22T08:43:02.937Z,34.90
2022-12-22T08:45:29.969Z,34.90
2022-12-22T08:47:56.971Z,34.90
2022-12-22T08:50:23.917Z,34.90
2022-12-22T08:52:50.958Z,35.50
2022-12-22T08:55:18.245Z,34.90
2022-12-22T08:57:55.985Z,34.90
2022-12-22T09:00:23.971Z,34.80
2022-12-22T09:02:51.488Z,34.80
2022-12-22T09:05:19.696Z,34.90
2022-12-22T09:07:47.344Z,35.00
2022-12-22T09:10:15.615Z,35.00
2022-12-22T09:12:42.607Z,35.00
2022-12-22T09:15:09.932Z,35.00
2022-12-22T09:17:37.756Z,35.00
2022-12-22T09:20:06.294Z,35.00
2022-12-22T09:22:33.311Z,35.00
2022-12-22T09:25:00.194Z,35.00
2022-12-22T09:27:27.189Z,35.00
2022-12-22T09:29:54.803Z,34.90
2022-12-22T09:32:21.842Z,34.90
2022-12-22T09:34:48.990Z,34.80
2022-12-22T09:37:17.197Z,34.90
2022-12-22T09:39:44.215Z,34.80
2022-12-22T09:42:18.575Z,34.80
2022-12-22T09:44:50.609Z,34.70
2022-12-22T09:47:36.056Z,34.70
2022-12-22T09:50:06.247Z,34.70
2022-12-22T09:52:36.215Z,34.70
2022-12-22T09:55:13.438Z,34.60
2022-12-22T09:57:40.351Z,34.50
2022-12-22T10:00:16.138Z,35.30
2022-12-22T10:03:24.476Z,34.50
2022-12-22T10:06:08.276Z,34.50
2022-12-22T10:08:38.623Z,34.50
2022-12-22T10:11:05.616Z,34.50
2022-12-22T10:13:32.681Z,34.50
2022-12-22T10:15:59.994Z,34.50
2022-12-22T10:18:30.081Z,34.50
2022-12-22T10:21:12.892Z,34.50
2022-12-22T10:23:48.642Z,34.40
2022-12-22T10:26:30.909Z,34.50
2022-12-22T10:29:10.715Z,34.40
2022-12-22T10:32:13.093Z,34.40
2022-12-22T10:35:00.638Z,34.50
2022-12-22T10:37:41.971Z,34.30
2022-12-22T10:40:17.644Z,34.30
2022-12-22T10:42:49.518Z,34.40
2022-12-22T10:45:26.652Z,34.40
2022-12-22T10:47:56.847Z,34.40
2022-12-22T10:50:24.388Z,34.40
2022-12-22T10:52:58.678Z,34.40
2022-12-22T10:55:30.007Z,34.40
2022-12-22T10:58:16.676Z,34.40
2022-12-22T11:00:45.180Z,34.50
2022-12-22T11:03:19.140Z,34.60
2022-12-22T11:05:51.963Z,34.70
2022-12-22T11:08:21.040Z,34.70
2022-12-22T11:11:10.076Z,34.60
2022-12-22T11:14:05.119Z,34.50
2022-12-22T11:16:50.126Z,34.50
2022-12-22T11:19:55.151Z,34.50
2022-12-22T11:22:35.905Z,34.30
2022-12-22T11:25:15.104Z,34.30
2022-12-22T11:28:31.087Z,34.40
2022-12-22T11:31:51.991Z,34.30
2022-12-22T11:35:26.248Z,34.30
2022-12-22T11:38:28.596Z,34.20
2022-12-22T11:41:36.992Z,34.20
2022-12-22T11:44:55.260Z,34.20
2022-12-22T11:47:50.297Z,34.20
2022-12-22T11:51:00.180Z,34.00
2022-12-22T11:53:56.877Z,33.80
2022-12-22T11:56:39.403Z,33.80
2022-12-22T11:59:30.050Z,33.60
2022-12-22T12:02:02.978Z,33.60
2022-12-22T12:05:27.173Z,34.10
2022-12-22T12:08:17.882Z,32.80
2022-12-22T12:11:37.072Z,33.60
2022-12-22T12:14:25.136Z,33.50
2022-12-22T12:17:08.978Z,33.70
2022-12-22T12:19:54.333Z,33.80
2022-12-22T12:22:55.569Z,33.90
2022-12-22T12:25:38.961Z,34.40
2022-12-22T12:28:37.591Z,33.90
2022-12-22T12:31:07.533Z,33.60
2022-12-22T12:33:48.551Z,33.70
2022-12-22T12:36:36.905Z,33.50
2022-12-22T12:40:06.867Z,33.50
2022-12-22T12:42:47.026Z,33.40
2022-12-22T12:45:38.503Z,33.50
2022-12-22T12:48:20.938Z,33.40
2022-12-22T12:50:52.045Z,33.40
2022-12-22T12:53:28.022Z,33.50
2022-12-22T12:56:07.160Z,33.50
2022-12-22T12:58:39.413Z,33.50
2022-12-22T13:01:29.259Z,33.50
2022-12-22T13:04:05.345Z,33.40
2022-12-22T13:06:53.551Z,33.50
2022-12-22T13:09:50.401Z,33.40
2022-12-22T13:12:39.320Z,33.40
2022-12-22T13:15:35.395Z,33.30
2022-12-22T13:18:23.948Z,33.30
2022-12-22T13:21:51.806Z,33.30
2022-12-22T13:24:30.334Z,33.30
2022-12-22T13:27:06.631Z,33.40
2022-12-22T13:29:47.269Z,33.50
2022-12-22T13:32:16.495Z,33.50
2022-12-22T13:37:45.913Z,33.60
2022-12-22T13:40:21.588Z,33.70
2022-12-22T13:43:02.596Z,33.70
2022-12-22T13:45:50.541Z,33.80
2022-12-22T13:48:40.004Z,33.80
2022-12-22T13:51:35.660Z,33.70
2022-12-22T13:54:23.366Z,33.80
2022-12-22T13:56:54.618Z,33.80
2022-12-22T13:59:43.468Z,33.70
2022-12-22T14:02:11.433Z,33.70
2022-12-22T14:04:42.793Z,33.70
2022-12-22T14:07:19.032Z,33.70
2022-12-22T14:09:55.001Z,33.60
2022-12-22T14:12:30.554Z,34.20
2022-12-22T14:15:01.318Z,33.60
2022-12-22T14:17:34.435Z,33.60
2022-12-22T14:20:20.407Z,33.60
2022-12-22T14:23:06.299Z,33.50
2022-12-22T14:25:41.049Z,33.40
2022-12-22T14:28:18.510Z,33.50
2022-12-22T14:30:50.328Z,33.40
2022-12-22T14:33:32.013Z,33.40
2022-12-22T14:36:21.809Z,33.40
2022-12-22T14:39:03.706Z,33.40
2022-12-22T14:41:51.683Z,33.60
2022-12-22T14:44:28.063Z,33.40
2022-12-22T14:47:15.171Z,33.50
2022-12-22T14:49:51.265Z,33.50
2022-12-22T14:52:39.541Z,33.60
2022-12-22T14:55:28.865Z,34.20
2022-12-22T14:58:02.906Z,33.60
2022-12-22T15:00:37.531Z,33.70
2022-12-22T15:03:36.660Z,33.70
2022-12-22T15:06:28.767Z,33.70
2022-12-22T15:09:15.160Z,33.70
2022-12-22T15:11:54.471Z,33.70
2022-12-22T15:14:34.945Z,33.70
2022-12-22T15:17:18.058Z,33.80
2022-12-22T15:19:45.157Z,33.70
2022-12-22T15:22:12.850Z,33.70
2022-12-22T15:24:40.488Z,33.70
2022-12-22T15:27:07.951Z,33.70
2022-12-22T15:29:34.948Z,33.60
2022-12-22T15:32:02.106Z,33.70
2022-12-22T15:34:32.411Z,33.70
2022-12-22T15:36:59.621Z,33.60
2022-12-22T15:39:26.823Z,33.60
2022-12-22T15:41:54.692Z,33.70
2022-12-22T15:44:22.550Z,33.60
2022-12-22T15:46:57.679Z,33.70
2022-12-22T15:49:28.290Z,33.80
2022-12-22T15:52:00.516Z,33.70
2022-12-22T15:54:31.024Z,33.70
2022-12-22T15:56:58.036Z,33.70
2022-12-22T15:59:28.481Z,33.70
2022-12-22T16:02:01.735Z,33.70
2022-12-22T16:04:29.940Z,33.70
2022-12-22T16:06:59.433Z,33.70
2022-12-22T16:09:32.935Z,33.70
2022-12-22T16:12:00.065Z,33.70
2022-12-22T16:14:27.204Z,33.70
2022-12-22T16:16:54.060Z,33.60
2022-12-22T16:19:21.121Z,33.70
2022-12-22T16:21:53.077Z,33.70
2022-12-22T16:24:34.505Z,33.70
2022-12-22T16:27:02.460Z,33.80
2022-12-22T16:29:29.739Z,33.90
2022-12-22T16:32:24.108Z,33.80
2022-12-22T16:34:51.609Z,33.90
2022-12-22T16:37:18.569Z,33.90
2022-12-22T16:39:46.466Z,33.90
2022-12-22T16:45:04.443Z,34.00
2022-12-22T16:47:36.731Z,33.90
2022-12-22T16:50:06.508Z,33.90
2022-12-22T16:52:40.213Z,33.90
2022-12-22T16:55:19.037Z,33.90
2022-12-22T16:57:46.410Z,33.90
2022-12-22T17:00:30.237Z,33.90
2022-12-22T17:03:10.902Z,33.80
2022-12-22T17:05:46.282Z,33.90
2022-12-22T17:08:39.377Z,33.80
2022-12-22T17:11:21.674Z,33.80
2022-12-22T17:13:51.807Z,33.80
2022-12-22T17:16:22.112Z,33.70
2022-12-22T17:18:49.663Z,33.70
2022-12-22T17:21:20.690Z,33.80
2022-12-22T17:23:52.192Z,33.80
2022-12-22T17:26:24.603Z,33.80
2022-12-22T17:28:52.741Z,33.80
2022-12-22T17:31:22.782Z,34.30
2022-12-22T17:33:50.553Z,33.70
2022-12-22T17:36:33.197Z,33.70
2022-12-22T17:39:01.920Z,33.80
2022-12-22T17:41:29.240Z,33.70
2022-12-22T17:43:56.454Z,33.70
2022-12-22T17:46:23.740Z,33.70
2022-12-22T17:48:51.133Z,33.60
2022-12-22T17:51:23.924Z,33.60
2022-12-22T17:53:52.669Z,33.60
2022-12-22T17:56:23.497Z,33.60
2022-12-22T17:58:51.703Z,33.70
2022-12-22T18:01:32.112Z,33.60
2022-12-22T18:03:59.675Z,33.70
2022-12-22T18:06:35.315Z,33.70
2022-12-22T18:09:07.054Z,33.80
2022-12-22T18:11:34.265Z,33.70
2022-12-22T18:14:01.365Z,33.80
2022-12-22T18:16:29.389Z,33.80
2022-12-22T18:18:56.431Z,33.80
2022-12-22T18:21:25.301Z,33.80
2022-12-22T18:23:53.061Z,33.80
2022-12-22T18:26:25.751Z,33.80
2022-12-22T18:28:54.725Z,33.90
2022-12-22T18:31:23.642Z,33.80
2022-12-22T18:33:51.500Z,33.90
2022-12-22T18:36:30.697Z,33.80
2022-12-22T18:39:00.696Z,33.90
2022-12-22T18:41:32.209Z,33.80
2022-12-22T18:43:59.124Z,33.90
2022-12-22T18:46:26.223Z,34.00
2022-12-22T18:48:55.787Z,34.60
2022-12-22T18:51:27.444Z,34.00
2022-12-22T18:53:54.934Z,34.10
2022-12-22T18:56:21.972Z,34.00
2022-12-22T18:58:49.101Z,34.10
2022-12-22T19:01:24.132Z,34.10
2022-12-22T19:03:54.404Z,34.20
2022-12-22T19:06:23.523Z,34.10
2022-12-22T19:08:51.928Z,34.10
2022-12-22T19:11:25.295Z,34.10
2022-12-22T19:13:53.004Z,34.20
2022-12-22T19:16:26.230Z,34.10
2022-12-22T19:18:53.274Z,34.20
2022-12-22T19:21:20.558Z,34.20
2022-12-22T19:23:49.148Z,34.10
2022-12-22T19:26:26.822Z,34.20
2022-12-22T19:29:01.256Z,34.30
2022-12-22T19:31:33.682Z,34.40
2022-12-22T19:34:05.471Z,34.40
2022-12-22T19:36:33.398Z,34.40
2022-12-22T19:39:05.121Z,34.40
2022-12-22T19:41:52.600Z,34.50
2022-12-22T19:44:27.262Z,34.60
2022-12-22T19:46:56.187Z,34.60
2022-12-22T19:49:27.432Z,34.50
2022-12-22T19:51:56.495Z,34.50
2022-12-22T19:54:23.596Z,34.50
2022-12-22T19:56:55.101Z,34.40
2022-12-22T19:59:45.409Z,34.50
2022-12-22T20:02:21.537Z,34.60
2022-12-22T20:04:50.130Z,34.60
2022-12-22T20:07:20.164Z,34.50
2022-12-22T20:09:47.754Z,34.50
2022-12-22T20:12:32.284Z,34.50
2022-12-22T20:15:14.005Z,34.70
2022-12-22T20:17:41.000Z,34.60
2022-12-22T20:20:19.557Z,34.50
2022-12-22T20:22:55.392Z,34.60
2022-12-22T20:25:27.222Z,34.60
2022-12-22T20:27:55.729Z,34.60
2022-12-22T20:30:30.038Z,34.50
2022-12-22T20:32:57.535Z,34.60
2022-12-22T20:35:25.032Z,34.50
2022-12-22T20:37:52.045Z,34.50
2022-12-22T20:40:32.337Z,34.50
2022-12-22T20:42:59.367Z,34.80
2022-12-22T20:45:31.431Z,34.60
2022-12-22T20:48:00.050Z,34.70
2022-12-22T20:50:32.310Z,34.60
2022-12-22T20:52:59.257Z,34.70
2022-12-22T20:55:28.853Z,34.70
2022-12-22T20:57:55.908Z,34.70
2022-12-22T21:00:28.765Z,34.60
2022-12-22T21:02:55.883Z,34.70
2022-12-22T21:05:23.201Z,34.70
2022-12-22T21:07:50.445Z,34.70
2022-12-22T21:10:26.298Z,34.70
2022-12-22T21:12:53.375Z,34.80
2022-12-22T21:15:28.048Z,34.70
2022-12-22T21:17:58.533Z,34.70
2022-12-22T21:20:29.327Z,34.70
2022-12-22T21:22:56.259Z,34.80
2022-12-22T21:25:24.542Z,34.80
2022-12-22T21:27:52.545Z,34.80
2022-12-22T21:30:30.638Z,34.70
2022-12-22T21:32:58.149Z,34.90
2022-12-22T21:35:35.604Z,34.70
2022-12-22T21:38:03.374Z,35.00
2022-12-22T21:40:32.647Z,34.80
2022-12-22T21:42:59.869Z,34.80
2022-12-22T21:45:31.505Z,34.80
2022-12-22T21:48:02.193Z,34.90
2022-12-22T21:50:33.019Z,34.90
2022-12-22T21:53:01.134Z,34.80
2022-12-22T21:55:35.406Z,34.90
2022-12-22T21:58:04.357Z,35.00
2022-12-22T22:00:33.455Z,34.90
2022-12-22T22:03:03.566Z,34.90
2022-12-22T22:05:37.305Z,34.90
2022-12-22T22:08:11.091Z,35.00
2022-12-22T22:10:41.754Z,35.00
2022-12-22T22:13:13.640Z,35.00
2022-12-22T22:15:40.760Z,34.90
2022-12-22T22:18:10.783Z,35.00
2022-12-22T22:20:37.670Z,35.00
2022-12-22T22:23:04.557Z,34.90
2022-12-22T22:25:31.451Z,35.00
2022-12-22T22:28:02.037Z,35.00
2022-12-22T22:30:29.061Z,35.00
2022-12-22T22:32:56.884Z,35.00
2022-12-22T22:35:26.801Z,35.00
2022-12-22T22:37:53.784Z,35.10
2022-12-22T22:40:23.130Z,35.00
2022-12-22T22:42:50.086Z,35.10
2022-12-22T22:45:24.080Z,35.10
2022-12-22T22:47:52.806Z,35.10
2022-12-22T22:50:23.245Z,35.10
2022-12-22T22:52:50.387Z,35.20
2022-12-22T22:55:17.366Z,35.10
2022-12-22T22:57:44.283Z,35.10
2022-12-22T23:00:14.274Z,35.10
2022-12-22T23:02:41.883Z,35.10
2022-12-22T23:05:11.386Z,35.10
2022-12-22T23:07:41.284Z,35.20
2022-12-22T23:10:09.111Z,35.20
2022-12-22T23:12:36.081Z,35.20
2022-12-22T23:15:03.214Z,35.20
2022-12-22T23:17:30.149Z,35.20
2022-12-22T23:19:57.244Z,35.10
2022-12-22T23:22:24.356Z,35.30
2022-12-22T23:24:51.269Z,35.20
2022-12-22T23:27:18.310Z,35.20
2022-12-22T23:29:45.165Z,35.20
2022-12-22T23:32:12.417Z,35.20
2022-12-22T23:34:39.318Z,35.20
2022-12-22T23:37:06.222Z,35.20
2022-12-22T23:39:33.110Z,35.20
2022-12-22T23:42:00.054Z,35.30
2022-12-22T23:44:27.057Z,35.30
2022-12-22T23:46:54.129Z,35.30
2022-12-22T23:49:21.226Z,35.20
2022-12-22T23:51:48.165Z,35.30
2022-12-22T23:54:15.150Z,35.30
2022-12-22T23:56:42.042Z,35.20
2022-12-22T23:59:08.878Z,35.20
